01:56
Airports
History
Links
Donate
Help keep this website running!
PayPal
Bitcoin
This page is community maintained. The information is intended for PC simulator navigation or reference.
Always use approved charts for navigation.
CNR9
Arnstein
Arnstein (CNR9)
Ontario, Canada
4
Lat/Lng:45° 55' 32.43" N / 79° 55' 40.59" W
45.925675 / -79.927943
Elevation:745'ft / 227mMSL
ID / ICAO:CNR9
Runways:1
Longest:03-21
Grass 563m / 1,848ft
Beacon:White-Green
Nearby Weather01:00 GMT 2017-10-19
Nearby weather at CYYB, North Bay located 38.7 nautical miles from CNR9
Altimeter: 29.95
Visibility: 15.0 statute miles
Wind: 10 knots (from 200°)
Temp: 12°c / 54°f
Humidity: 71.4%

METAR: CYYB 190100Z 20010KT 15SM SKC 12/07 A2995 RMK SLP153

(Powered by phpweather)
Nearby VORs <50NM
Nearby NDBs
Runway 03 / 21
Dimensions:563.3 x 29.9m 1848' x 98'ft
Surface:Grass
Edge Lights:Low intensity
Runway 03 [A]Runway 21 [B]
Heading:020°TH 200°TH
Lat:
Lng:
45° 55' 23.9"N
79° 55' 45.28"W
45° 55' 40.96"N
79° 55' 35.91"W
User Notes and Comments
45° 55' 32.43" N / 79° 55' 40.59" W
Distance To
Airport ID:
Nearby Airports
4 Nipissing on 654 24.5 NM
CNC7 ENE 58°
4 Trout Creek Chalet 25.6 NM
CTC1 E 82°
4 North Monetville Skypark 26.2 NM
CPX4 NW 315°
(C) South River-Sundridge 28.9 NM
CPE6 ESE 104°
4 Corbeil Bertha Rd 37.0 NM
CB01 NE 55°
4 Emsdale 38.1 NM
CNA4 SE 132°
(C) North Bay 38.7 NM
CYYB ( WX ) NE 38°
VFR Chart
Flight Planning at SkyVector.com